Birdham, United Kingdom
Current Conditions -  °F | °C
As of 1:20 PM on Thursday 23 Oct 2014 (Local Time) from EGKA Reporting Station
Broken Clouds Broken Clouds  
Wind Chill: 59°   Ceiling: 1300
Heat Index: 59°   Visibility: 4mi
Dew Point: 54°   Wind: 16mph
Humidity: 82%   Direction: 230°SW
Pressure: 30.12"   Gusts: NA
Location:  50.8°N, 0.83°W
Report Text: EGKA 231220Z 23014KT 7000 FEW009 BKN013 15/12 Q1020
Loading
Personal Weather Stations






























Interactive Weather Map New forecast layout! Learn more

10-Day Weather Forecast

Advertisements
Track Severe Weather on mobile